Time;durP1;ratioP1;P1;durP2;ratioP2;P2;SDS_P1;SDS_P2;PMS_P1;PMS_P2;Temp;Humidity;BMP_temperature;BMP_pressure;BME280_temperature;BME280_humidity;BME280_pressure;Samples;Min_cycle;Max_cycle;Signal;HPM_P1;HPM_P2
2021/01/27 00:01:15;;;;;;;;;21.75;21.75;;;;;9.46;80.57;100437.50;6252565;23;11360;-78
2021/01/27 00:04:10;;;;;;;;;29.00;28.00;;;;;9.44;80.66;100446.13;6242365;23;11469;-78
2021/01/27 00:06:40;;;;;;;;;33.25;31.75;;;;;9.42;80.69;100442.03;6253940;23;11443;-78
2021/01/27 00:09:07;;;;;;;;;32.50;29.50;;;;;9.50;80.28;100441.19;6245298;23;11445;-78
2021/01/27 00:11:35;;;;;;;;;25.25;25.25;;;;;9.45;80.58;100450.50;6253975;23;11422;-78
2021/01/27 00:14:02;;;;;;;;;30.50;28.75;;;;;9.47;80.24;100441.88;6227406;23;11485;-78
2021/01/27 00:16:30;;;;;;;;;28.00;28.00;;;;;9.49;80.27;100442.34;6254082;23;11525;-79
2021/01/27 00:18:57;;;;;;;;;21.00;21.00;;;;;9.32;80.91;100418.38;6254137;23;11437;-78
2021/01/27 00:21:25;;;;;;;;;18.50;17.50;;;;;9.28;81.16;100425.69;6227945;23;11428;-79
2021/01/27 00:24:16;;;;;;;;;20.50;20.50;;;;;9.49;80.56;100423.03;6245738;23;11450;-78
2021/01/27 00:27:11;;;;;;;;;22.25;21.25;;;;;9.49;80.61;100414.75;6243650;23;11143;-78
2021/01/27 00:29:39;;;;;;;;;22.75;19.50;;;;;9.53;80.23;100409.38;6253960;23;11416;-78
2021/01/27 00:32:28;;;;;;;;;21.00;21.00;;;;;9.51;80.16;100408.88;6245474;23;11428;-78
2021/01/27 00:35:05;;;;;;;;;17.50;17.50;;;;;9.49;80.60;100403.69;6245058;23;11425;-78
2021/01/27 00:37:34;;;;;;;;;21.75;21.50;;;;;9.52;80.17;100389.25;6244977;23;11421;-77
2021/01/27 00:40:31;;;;;;;;;19.75;19.75;;;;;9.58;80.04;100376.84;6223512;23;11474;-78
2021/01/27 00:43:27;;;;;;;;;15.50;15.50;;;;;9.59;80.08;100378.50;6223310;23;11522;-78
2021/01/27 00:46:23;;;;;;;;;22.25;22.25;;;;;9.55;80.50;100380.28;6243791;23;11430;-78
2021/01/27 00:49:18;;;;;;;;;12.25;12.25;;;;;9.54;80.54;100378.69;6243823;23;12224;-78
2021/01/27 00:52:14;;;;;;;;;18.00;18.00;;;;;9.68;80.06;100367.41;6243592;23;11798;-78
2021/01/27 00:55:13;;;;;;;;;13.75;13.75;;;;;9.65;79.97;100360.59;6224801;23;11545;-79
2021/01/27 00:57:41;;;;;;;;;18.25;18.00;;;;;9.65;80.09;100345.97;6227626;23;11437;-79
2021/01/27 01:00:18;;;;;;;;;18.50;17.50;;;;;9.64;80.46;100358.97;6249297;23;11435;-78
2021/01/27 01:03:02;;;;;;;;;26.75;26.50;;;;;9.67;80.46;100357.53;6242653;23;11416;-79
2021/01/27 01:05:32;;;;;;;;;22.25;22.25;;;;;9.66;80.26;100333.78;6218512;23;11442;-78
2021/01/27 01:08:00;;;;;;;;;25.25;25.25;;;;;9.68;80.36;100334.28;6255376;23;11427;-78
2021/01/27 01:10:33;;;;;;;;;25.75;25.75;;;;;9.69;80.47;100333.13;6229517;23;11542;-79
2021/01/27 01:13:19;;;;;;;;;26.75;25.00;;;;;9.63;80.69;100349.06;6246221;23;11443;-79
2021/01/27 01:15:47;;;;;;;;;39.50;35.25;;;;;9.57;80.56;100333.84;6228917;23;11423;-78
2021/01/27 01:18:23;;;;;;;;;31.00;28.25;;;;;9.64;80.56;100330.56;6221697;23;11527;-78
2021/01/27 01:21:19;;;;;;;;;27.75;27.75;;;;;9.71;80.37;100319.81;6225179;23;12203;-78
2021/01/27 01:23:47;;;;;;;;;25.00;25.00;;;;;9.73;80.46;100311.97;6255091;23;11412;-78
2021/01/27 01:26:43;;;;;;;;;27.75;27.75;;;;;9.65;80.12;100310.88;6224769;23;11472;-78
2021/01/27 01:29:10;;;;;;;;;31.25;29.50;;;;;9.55;80.69;100319.56;6255478;23;11474;-79
2021/01/27 01:31:38;;;;;;;;;29.00;28.25;;;;;9.52;80.72;100323.00;6255646;23;11496;-79
2021/01/27 01:34:06;;;;;;;;;31.50;31.50;;;;;9.55;79.68;100332.56;6255265;23;11439;-78
2021/01/27 01:36:33;;;;;;;;;31.25;31.25;;;;;9.46;79.48;100329.84;6255469;23;11443;-79
2021/01/27 01:39:09;;;;;;;;;36.00;35.00;;;;;9.38;78.93;100317.69;6246325;23;11465;-79
2021/01/27 01:41:36;;;;;;;;;36.25;36.25;;;;;9.33;78.83;100315.13;6255478;23;11477;-79
2021/01/27 01:44:18;;;;;;;;;43.00;40.00;;;;;9.23;78.58;100311.94;6246201;23;11562;-78
2021/01/27 01:46:45;;;;;;;;;45.25;37.25;;;;;9.04;77.76;100304.03;6246032;23;11533;-79
2021/01/27 01:49:14;;;;;;;;;43.25;39.50;;;;;8.77;77.42;100308.81;6219855;23;11588;-78
2021/01/27 01:52:04;;;;;;;;;56.75;46.50;;;;;8.60;78.16;100312.44;6246844;23;11485;-78
2021/01/27 01:54:41;;;;;;;;;51.75;41.50;;;;;8.70;77.94;100299.44;6255035;23;11481;-78
2021/01/27 01:57:15;;;;;;;;;31.50;28.00;;;;;8.85;77.73;100298.91;6228848;23;11469;-79
2021/01/27 01:59:51;;;;;;;;;58.25;47.75;;;;;8.54;77.71;100297.19;6231867;23;11567;-79
2021/01/27 02:02:19;;;;;;;;;55.50;43.50;;;;;8.37;78.04;100296.41;6253377;23;11512;-78
2021/01/27 02:04:53;;;;;;;;;59.00;49.00;;;;;8.49;77.80;100291.03;6255064;22;11566;-78
2021/01/27 02:07:29;;;;;;;;;46.50;40.00;;;;;8.34;78.16;100287.59;6276819;22;11613;-78
2021/01/27 02:10:25;;;;;;;;;60.25;50.75;;;;;8.47;77.74;100287.81;6245585;23;11614;-78
2021/01/27 02:13:29;;;;;;;;;47.25;42.25;;;;;8.36;77.37;100290.09;6255003;23;11535;-78
2021/01/27 02:16:15;;;;;;;;;67.00;52.50;;;;;8.25;78.11;100286.00;6254892;23;11553;-79
2021/01/27 02:18:46;;;;;;;;;73.00;55.00;;;;;8.25;78.14;100283.25;6254720;22;11568;-78
2021/01/27 02:21:22;;;;;;;;;78.00;62.25;;;;;8.23;78.16;100282.78;6246210;22;12427;-79
2021/01/27 02:24:25;;;;;;;;;85.25;65.25;;;;;8.27;78.27;100269.94;6254797;23;11528;-79
2021/01/27 02:27:27;;;;;;;;;78.00;61.25;;;;;8.06;78.58;100270.63;6254581;22;11564;-79
2021/01/27 02:30:21;;;;;;;;;87.67;67.00;;;;;8.17;78.02;100264.78;6254618;22;11552;-79
2021/01/27 02:33:22;;;;;;;;;95.67;70.67;;;;;7.97;77.99;100268.97;6269411;22;11567;-79
2021/01/27 02:36:04;;;;;;;;;95.00;76.00;;;;;7.97;78.16;100267.03;6253281;23;11533;-79
2021/01/27 02:39:01;;;;;;;;;94.33;68.67;;;;;7.98;78.31;100271.44;6254831;22;8801;-78
2021/01/27 02:42:33;;;;;;;;;89.67;73.33;;;;;7.84;78.49;100279.03;6243217;23;8823;-79
2021/01/27 02:45:35;;;;;;;;;94.00;66.67;;;;;7.80;78.05;100286.31;6243174;23;8789;-79
2021/01/27 02:48:35;;;;;;;;;85.33;65.33;;;;;7.84;77.98;100283.72;6262503;22;8804;-79
2021/01/27 02:52:03;;;;;;;;;78.33;62.00;;;;;7.83;78.35;100282.13;6245285;23;11582;-79
2021/01/27 02:55:39;;;;;;;;;73.25;56.75;;;;;7.80;78.64;100289.06;6245133;23;11632;-79
2021/01/27 02:58:22;;;;;;;;;79.25;62.00;;;;;7.77;77.90;100282.25;6220133;22;11542;-79
2021/01/27 03:01:02;;;;;;;;;64.25;54.50;;;;;7.72;77.70;100273.34;6246968;22;12233;-78
2021/01/27 03:04:06;;;;;;;;;66.25;55.25;;;;;7.65;78.28;100273.00;6224086;23;11487;-78
2021/01/27 03:06:35;;;;;;;;;55.00;46.75;;;;;7.63;78.49;100270.59;6227757;23;11512;-78
2021/01/27 03:09:40;;;;;;;;;50.75;45.50;;;;;7.59;78.20;100266.88;6223921;23;11526;-79
2021/01/27 03:12:36;;;;;;;;;43.25;39.75;;;;;7.66;77.95;100263.59;6223716;23;11584;-79
2021/01/27 03:15:31;;;;;;;;;52.25;44.25;;;;;7.61;78.23;100256.34;6243680;23;11516;-78
2021/01/27 03:18:31;;;;;;;;;45.25;42.00;;;;;7.59;78.34;100258.59;6243677;23;11497;-79
2021/01/27 03:21:06;;;;;;;;;39.75;36.00;;;;;7.56;78.34;100253.72;6254163;23;11479;-78
2021/01/27 03:23:59;;;;;;;;;44.50;41.75;;;;;7.67;77.62;100257.00;6245145;23;11477;-79
2021/01/27 03:27:21;;;;;;;;;40.00;39.00;;;;;7.46;78.31;100249.34;6244876;23;11514;-78
2021/01/27 03:30:17;;;;;;;;;48.00;42.50;;;;;7.68;78.25;100251.16;6243660;23;11527;-79
2021/01/27 03:33:01;;;;;;;;;41.75;40.25;;;;;7.64;78.14;100241.91;6254396;23;11498;-79
2021/01/27 03:35:37;;;;;;;;;45.50;41.75;;;;;7.56;77.99;100247.41;6254566;23;11592;-79
2021/01/27 03:38:36;;;;;;;;;41.50;38.75;;;;;7.51;78.22;100249.22;6229604;23;11463;-79
2021/01/27 03:41:20;;;;;;;;;44.50;40.50;;;;;7.39;78.24;100239.94;6245006;23;11518;-79
2021/01/27 03:44:27;;;;;;;;;43.50;40.25;;;;;7.40;78.60;100242.38;6253885;23;11492;-79
2021/01/27 03:47:05;;;;;;;;;41.25;39.00;;;;;7.47;78.79;100233.66;6182524;23;11539;-79
2021/01/27 03:49:38;;;;;;;;;59.00;49.00;;;;;7.32;78.69;100234.09;6254004;23;11491;-79
2021/01/27 03:52:45;;;;;;;;;49.75;43.25;;;;;7.38;78.80;100238.31;6224287;23;11617;-79
2021/01/27 03:55:37;;;;;;;;;61.00;47.50;;;;;7.51;78.46;100245.63;6253632;23;11522;-79
2021/01/27 03:58:23;;;;;;;;;60.75;50.75;;;;;7.36;78.72;100241.41;6253731;23;11500;-79
2021/01/27 04:00:51;;;;;;;;;58.25;48.00;;;;;7.35;78.81;100234.25;6244667;23;11518;-79
2021/01/27 04:03:50;;;;;;;;;58.25;46.25;;;;;7.47;79.11;100239.16;6244311;23;11513;-79
2021/01/27 04:06:46;;;;;;;;;50.50;43.50;;;;;7.41;78.91;100235.72;6242443;23;11524;-79
2021/01/27 04:09:42;;;;;;;;;41.25;38.50;;;;;7.29;78.55;100234.75;6223646;23;11510;-79
2021/01/27 04:12:37;;;;;;;;;40.25;38.50;;;;;7.39;78.56;100224.25;6244649;22;11496;-78
2021/01/27 04:15:06;;;;;;;;;42.50;40.75;;;;;7.52;78.49;100237.06;6254107;23;11465;-79
2021/01/27 04:18:02;;;;;;;;;52.50;46.25;;;;;7.13;80.52;100243.44;6244522;23;11541;-78
2021/01/27 04:20:58;;;;;;;;;58.75;49.75;;;;;7.28;79.51;100250.41;6243452;23;11550;-79
2021/01/27 04:23:25;;;;;;;;;59.50;51.00;;;;;7.40;78.85;100250.63;6253831;23;11574;-79
2021/01/27 04:25:52;;;;;;;;;66.50;55.25;;;;;7.51;78.77;100243.69;6253968;23;11476;-78
2021/01/27 04:28:27;;;;;;;;;115.67;98.67;;;;;7.54;78.92;100239.50;6229571;23;11511;-78
2021/01/27 04:30:54;;;;;;;;;34.75;33.75;;;;;7.50;79.20;100217.28;6253886;23;8777;-78
2021/01/27 04:33:38;;;;;;;;;44.25;39.75;;;;;7.37;79.51;100207.25;6244560;23;11531;-78
2021/01/27 04:36:07;;;;;;;;;46.75;42.50;;;;;7.55;79.19;100208.09;6227273;23;11584;-78
2021/01/27 04:38:38;;;;;;;;;57.00;46.25;;;;;7.58;79.35;100190.91;6254066;23;11485;-78
2021/01/27 04:41:06;;;;;;;;;78.00;62.50;;;;;7.60;79.12;100193.38;6228193;23;11488;-78
2021/01/27 04:44:02;;;;;;;;;44.00;41.25;;;;;7.66;79.12;100184.59;6245216;23;11520;-78
2021/01/27 04:46:47;;;;;;;;;40.25;37.75;;;;;7.64;79.30;100183.31;6255375;23;11559;-78
2021/01/27 04:49:47;;;;;;;;;39.50;37.00;;;;;7.71;79.13;100183.66;6245743;23;11581;-78
2021/01/27 04:53:03;;;;;;;;;14.00;10.00;;;;;8.02;80.83;100186.22;6244959;23;11556;-78
2021/01/27 04:56:16;;;;;;;;;39.25;38.50;;;;;8.29;80.61;100183.09;6224996;23;11483;-78
2021/01/27 04:58:45;;;;;;;;;55.75;46.00;;;;;8.34;80.96;100173.84;6220490;23;11488;-78
2021/01/27 05:01:59;;;;;;;;;37.75;37.50;;;;;8.20;82.59;100173.22;6244965;23;11566;-78
2021/01/27 05:05:20;;;;;;;;;31.00;28.50;;;;;8.53;81.11;100179.81;6244800;23;11495;-79
2021/01/27 05:08:25;;;;;;;;;29.00;26.25;;;;;8.58;80.62;100168.59;6245066;23;12326;-78
2021/01/27 05:10:57;;;;;;;;;32.50;30.25;;;;;8.40;80.92;100160.72;6229166;23;11482;-78
2021/01/27 05:13:54;;;;;;;;;27.50;27.50;;;;;8.33;81.59;100166.72;6224968;23;11505;-77
2021/01/27 05:16:39;;;;;;;;;20.75;20.00;;;;;8.40;81.20;100164.28;6247152;23;11538;-78
2021/01/27 05:19:36;;;;;;;;;30.50;27.25;;;;;8.41;80.29;100160.41;6246205;23;12257;-78
2021/01/27 05:22:06;;;;;;;;;27.75;27.75;;;;;8.40;80.63;100160.72;6255488;23;11508;-78
2021/01/27 05:25:06;;;;;;;;;31.75;30.00;;;;;8.54;79.90;100162.13;6244759;23;11514;-78
2021/01/27 05:27:59;;;;;;;;;27.50;25.75;;;;;8.41;79.72;100163.16;6246923;23;11482;-77
2021/01/27 05:30:31;;;;;;;;;30.75;28.50;;;;;8.38;79.97;100152.81;6254681;23;11479;-78
2021/01/27 05:32:58;;;;;;;;;30.00;30.00;;;;;8.67;78.49;100156.75;6254988;23;11480;-76
2021/01/27 05:35:40;;;;;;;;;38.25;34.25;;;;;8.78;78.42;100155.22;6246316;23;11493;-79
2021/01/27 05:38:24;;;;;;;;;30.50;29.00;;;;;8.82;77.85;100159.75;6255345;23;11508;-82
2021/01/27 05:41:12;;;;;;;;;31.00;29.50;;;;;8.82;78.01;100161.72;6255174;23;11587;-80
2021/01/27 05:43:53;;;;;;;;;26.25;23.75;;;;;8.75;77.68;100162.22;6222993;23;11510;-83
2021/01/27 05:46:30;;;;;;;;;25.00;25.00;;;;;8.78;77.48;100163.50;6255124;23;11518;-84
2021/01/27 05:49:00;;;;;;;;;42.00;39.00;;;;;8.74;77.98;100157.03;6253598;23;11494;-82
2021/01/27 05:52:14;;;;;;;;;48.75;41.75;;;;;8.81;77.57;100149.03;6245815;23;11611;-82
2021/01/27 05:55:10;;;;;;;;;45.75;41.50;;;;;8.67;77.93;100140.22;6246203;23;11500;-82
2021/01/27 05:57:38;;;;;;;;;39.00;37.00;;;;;8.58;78.04;100146.53;6257253;23;11506;-83
2021/01/27 06:00:26;;;;;;;;;38.00;37.25;;;;;8.63;78.09;100140.84;6251317;23;11526;-82
2021/01/27 06:02:56;;;;;;;;;28.00;25.75;;;;;8.55;78.18;100135.38;6229361;23;11510;-82
2021/01/27 06:05:52;;;;;;;;;24.00;23.00;;;;;8.69;77.48;100144.25;6225862;23;11573;-84
2021/01/27 06:08:23;;;;;;;;;25.25;24.75;;;;;8.84;76.63;100146.44;6230053;23;12358;-82
2021/01/27 06:10:50;;;;;;;;;28.25;28.25;;;;;8.93;76.16;100151.91;6255194;23;11558;-82
2021/01/27 06:13:23;;;;;;;;;23.75;22.25;;;;;8.90;75.92;100147.06;6219576;23;11494;-84
2021/01/27 06:16:31;;;;;;;;;24.25;24.25;;;;;8.75;76.33;100140.16;6244575;23;11414;-82
2021/01/27 06:19:20;;;;;;;;;24.50;24.25;;;;;8.64;76.50;100138.91;6219592;23;11446;-81
2021/01/27 06:22:26;;;;;;;;;21.00;21.00;;;;;8.61;76.74;100134.88;6245646;23;11479;-81
2021/01/27 06:25:26;;;;;;;;;28.50;27.25;;;;;8.78;76.39;100133.19;6246097;23;11553;-82
2021/01/27 06:29:00;;;;;;;;;25.75;24.75;;;;;8.69;76.46;100137.94;6245769;23;11502;-81
2021/01/27 06:32:17;;;;;;;;;24.25;23.25;;;;;8.90;76.02;100141.56;6151926;23;11505;-82
2021/01/27 06:35:29;;;;;;;;;28.25;26.75;;;;;8.88;75.73;100138.31;6254825;23;11419;-81
2021/01/27 06:38:44;;;;;;;;;22.00;21.25;;;;;8.71;75.90;100130.13;6176525;23;11472;-81
2021/01/27 06:41:20;;;;;;;;;29.75;29.75;;;;;8.66;76.17;100135.81;6181906;23;11533;-82
2021/01/27 06:44:25;;;;;;;;;31.50;30.25;;;;;8.78;75.61;100135.94;6224371;23;11438;-81
2021/01/27 06:47:35;;;;;;;;;31.50;29.50;;;;;8.63;76.31;100121.56;6224324;23;11494;-82
2021/01/27 06:50:58;;;;;;;;;45.00;41.25;;;;;8.72;76.32;100120.72;6245589;23;11615;-81
2021/01/27 06:54:12;;;;;;;;;35.00;30.50;;;;;8.81;75.92;100126.97;6223931;23;11601;-82
2021/01/27 06:57:08;;;;;;;;;24.25;21.25;;;;;8.94;75.62;100125.13;6244424;23;11574;-82
2021/01/27 07:00:29;;;;;;;;;35.50;32.25;;;;;9.14;76.06;100116.09;6243666;23;12196;-86
2021/01/27 07:04:00;;;;;;;;;33.25;32.50;;;;;9.16;76.15;100133.91;6223409;23;11498;-82
2021/01/27 07:07:07;;;;;;;;;30.25;29.75;;;;;9.36;75.16;100121.28;6224011;23;11557;-82
2021/01/27 07:09:45;;;;;;;;;29.00;28.75;;;;;9.38;75.05;100107.97;6228071;23;11553;-83
2021/01/27 07:12:16;;;;;;;;;37.00;35.00;;;;;9.32;75.14;100106.53;6254201;23;11572;-82
2021/01/27 07:15:04;;;;;;;;;42.00;38.00;;;;;9.43;75.12;100110.53;6254218;23;11573;-82
2021/01/27 07:17:47;;;;;;;;;32.50;30.25;;;;;9.57;74.75;100112.97;6245711;23;11497;-81
2021/01/27 07:20:29;;;;;;;;;29.00;29.00;;;;;9.48;74.64;100112.25;6254582;23;11462;-82
2021/01/27 07:23:22;;;;;;;;;35.75;30.50;;;;;9.44;74.56;100111.34;6255232;23;11426;-83
2021/01/27 07:26:32;;;;;;;;;48.25;41.75;;;;;9.37;74.99;100100.81;6227336;23;11490;-82
2021/01/27 07:29:44;;;;;;;;;31.00;31.00;;;;;9.51;75.13;100097.78;6247508;23;11525;-82
2021/01/27 07:32:50;;;;;;;;;40.75;37.50;;;;;9.49;74.92;100083.50;6227141;23;11537;-82
2021/01/27 07:35:39;;;;;;;;;62.00;50.00;;;;;9.44;75.21;100080.97;6246670;23;11523;-82
2021/01/27 07:38:26;;;;;;;;;41.75;37.75;;;;;9.35;74.98;100077.44;6257978;23;11496;-82
2021/01/27 07:41:28;;;;;;;;;36.25;36.25;;;;;9.51;75.48;100095.03;6246962;23;11636;-81
2021/01/27 07:44:03;;;;;;;;;26.75;26.25;;;;;9.61;74.77;100077.25;6257006;23;12240;-82
2021/01/27 07:47:21;;;;;;;;;21.75;21.75;;;;;9.61;74.77;100075.28;6227474;23;11480;-81
2021/01/27 07:50:20;;;;;;;;;35.25;31.00;;;;;9.79;74.70;100091.69;6246584;23;11447;-82
2021/01/27 07:53:31;;;;;;;;;34.50;33.00;;;;;9.80;74.67;100087.75;6208999;23;11459;-80
2021/01/27 07:56:06;;;;;;;;;36.75;32.75;;;;;9.93;74.64;100093.00;6248150;23;12130;-80
2021/01/27 07:59:18;;;;;;;;;27.25;27.00;;;;;9.96;74.37;100095.06;6226495;23;11481;-80
2021/01/27 08:02:30;;;;;;;;;32.75;32.75;;;;;10.02;74.34;100102.00;6245299;23;11444;-80
2021/01/27 08:05:09;;;;;;;;;31.50;26.25;;;;;9.97;74.84;100095.91;6231175;23;12089;-80
2021/01/27 08:08:12;;;;;;;;;34.00;31.25;;;;;10.19;74.39;100108.47;6224869;23;11447;-80
2021/01/27 08:11:12;;;;;;;;;30.00;29.25;;;;;10.13;75.11;100102.38;6247492;23;11458;-80
2021/01/27 08:14:13;;;;;;;;;40.50;37.25;;;;;10.32;74.82;100109.34;6246597;23;11468;-81
2021/01/27 08:17:44;;;;;;;;;31.25;30.25;;;;;10.33;75.18;100108.19;6230280;23;11466;-79
2021/01/27 08:20:23;;;;;;;;;35.00;34.50;;;;;10.30;74.93;100116.03;6233685;23;11454;-80
2021/01/27 08:23:22;;;;;;;;;32.75;32.50;;;;;10.43;74.94;100129.88;6248905;23;11567;-80
2021/01/27 08:26:07;;;;;;;;;46.00;39.00;;;;;10.38;75.30;100136.44;6251122;23;11451;-80
2021/01/27 08:28:37;;;;;;;;;41.00;39.00;;;;;10.42;75.45;100144.81;6233450;23;11434;-80
2021/01/27 08:31:22;;;;;;;;;39.00;37.25;;;;;10.53;75.57;100157.06;6235470;23;11534;-80
2021/01/27 08:34:44;;;;;;;;;40.00;38.00;;;;;10.61;75.56;100158.91;6248666;23;11524;-80
2021/01/27 08:37:41;;;;;;;;;35.75;34.75;;;;;10.63;76.03;100156.63;6228858;23;12170;-80
2021/01/27 08:40:38;;;;;;;;;22.00;19.00;;;;;10.75;75.80;100156.63;6247968;23;11463;-80
2021/01/27 08:43:41;;;;;;;;;30.00;30.00;;;;;10.82;75.75;100165.16;6247997;23;11444;-79
2021/01/27 08:46:32;;;;;;;;;24.25;23.75;;;;;10.80;76.27;100152.81;6259685;23;11449;-80
2021/01/27 08:49:37;;;;;;;;;24.50;23.75;;;;;10.81;76.41;100133.13;6228686;23;11126;-80
2021/01/27 08:52:40;;;;;;;;;28.75;27.00;;;;;10.94;76.08;100128.38;6229632;23;11601;-80
2021/01/27 08:55:52;;;;;;;;;42.00;39.00;;;;;10.89;76.52;100100.13;6247291;23;11499;-81
2021/01/27 08:58:29;;;;;;;;;41.00;38.25;;;;;11.15;75.74;100125.50;6224036;23;11460;-80
2021/01/27 09:01:30;;;;;;;;;58.75;49.50;;;;;11.20;76.24;100124.44;6246927;23;11522;-80
2021/01/27 09:04:35;;;;;;;;;52.75;45.25;;;;;11.25;76.49;100116.69;6249437;23;11564;-82
2021/01/27 09:07:32;;;;;;;;;55.50;47.50;;;;;11.41;76.06;100106.50;6250024;23;11553;-81
2021/01/27 09:10:32;;;;;;;;;68.00;54.75;;;;;11.48;75.78;100097.59;6259275;22;11563;-80
2021/01/27 09:13:40;;;;;;;;;76.25;61.25;;;;;11.63;75.82;100096.84;6246403;23;11563;-80
2021/01/27 09:16:13;;;;;;;;;53.50;45.25;;;;;11.61;75.98;100079.78;6260087;23;11575;-83
2021/01/27 09:19:03;;;;;;;;;36.75;34.00;;;;;11.54;76.50;100078.78;6250784;23;11577;-81
2021/01/27 09:21:32;;;;;;;;;29.25;28.25;;;;;11.62;76.04;100067.56;6258154;23;11594;-81
2021/01/27 09:24:37;;;;;;;;;35.75;34.25;;;;;11.67;75.81;100069.28;6249642;23;11478;-81
2021/01/27 09:27:33;;;;;;;;;39.00;36.25;;;;;11.77;75.40;100068.75;6248290;23;11496;-80
2021/01/27 09:30:29;;;;;;;;;29.00;27.25;;;;;11.77;75.60;100065.19;6250060;22;11493;-80
2021/01/27 09:33:34;;;;;;;;;31.00;31.00;;;;;11.89;75.10;100062.38;6250538;23;11127;-82
2021/01/27 09:36:30;;;;;;;;;31.25;31.25;;;;;11.92;75.09;100050.59;6267684;22;11103;-81
2021/01/27 09:39:12;;;;;;;;;35.00;33.50;;;;;11.95;75.20;100052.63;6250767;22;11134;-81
2021/01/27 09:41:43;;;;;;;;;27.75;27.75;;;;;12.09;75.23;100055.78;6259472;22;11174;-80
2021/01/27 09:44:39;;;;;;;;;32.25;30.50;;;;;12.08;75.42;100048.63;6250997;23;10830;-80
2021/01/27 09:47:13;;;;;;;;;33.75;33.00;;;;;12.14;75.44;100054.72;6260053;22;11166;-81
2021/01/27 09:49:53;;;;;;;;;33.50;32.75;;;;;12.16;75.05;100049.63;6259473;23;11186;-81
2021/01/27 09:52:59;;;;;;;;;42.00;38.50;;;;;12.16;75.24;100066.25;6248346;23;10955;-81
2021/01/27 09:55:55;;;;;;;;;41.00;38.00;;;;;12.20;75.10;100069.94;6266885;22;11524;-80
2021/01/27 09:58:24;;;;;;;;;39.75;35.25;;;;;12.05;75.83;100065.19;6258072;22;12125;-81
2021/01/27 10:01:26;;;;;;;;;29.50;29.00;;;;;12.11;75.86;100058.19;6249264;23;11469;-81
2021/01/27 10:04:37;;;;;;;;;13.75;13.00;;;;;12.14;75.61;100044.44;6246929;23;11224;-78
2021/01/27 10:07:39;;;;;;;;;21.50;21.50;;;;;12.13;75.07;100031.75;6248695;23;10753;-80
2021/01/27 10:10:36;;;;;;;;;18.00;18.00;;;;;12.09;75.39;100030.03;6248000;23;10829;-79
2021/01/27 10:13:04;;;;;;;;;33.50;33.25;;;;;12.12;75.55;100021.03;6272715;22;10678;-81
2021/01/27 10:15:40;;;;;;;;;26.00;26.00;;;;;12.17;75.05;100020.72;6256756;23;10937;-81
2021/01/27 10:18:38;;;;;;;;;25.25;25.25;;;;;12.18;74.92;100023.16;6246430;23;11038;-81
2021/01/27 10:21:45;;;;;;;;;20.50;20.50;;;;;12.26;75.05;100038.00;6248549;22;11027;-80
2021/01/27 10:24:50;;;;;;;;;45.75;39.75;;;;;12.37;74.41;100027.97;6257183;22;10753;-79
2021/01/27 10:27:46;;;;;;;;;41.25;38.00;;;;;12.30;74.78;100025.03;6248150;23;11491;-78
2021/01/27 10:31:01;;;;;;;;;38.50;35.00;;;;;12.31;75.25;100023.06;6246893;23;11497;-80
2021/01/27 10:33:58;;;;;;;;;48.50;41.50;;;;;12.31;75.16;100023.88;6246002;23;11265;-78
2021/01/27 10:36:54;;;;;;;;;39.50;35.25;;;;;12.37;75.38;100011.34;6246206;23;11471;-79
2021/01/27 10:39:35;;;;;;;;;46.75;41.00;;;;;12.26;75.61;99996.41;6247698;23;11097;-78
2021/01/27 10:42:35;;;;;;;;;59.75;50.75;;;;;12.34;75.62;100000.97;6247749;23;11514;-79
2021/01/27 10:45:22;;;;;;;;;49.25;39.50;;;;;12.29;75.91;99990.16;6281417;22;11544;-80
2021/01/27 10:48:22;;;;;;;;;26.25;25.75;;;;;12.48;75.47;99995.75;6270101;22;12157;-80
2021/01/27 10:50:55;;;;;;;;;27.50;27.50;;;;;12.62;75.00;99994.50;6256770;22;10924;-79
2021/01/27 10:53:45;;;;;;;;;28.25;27.50;;;;;12.59;75.11;99989.66;6248065;23;10874;-78
2021/01/27 10:56:18;;;;;;;;;38.00;34.75;;;;;12.56;75.41;99990.38;6246768;23;11009;-79
2021/01/27 10:58:50;;;;;;;;;47.50;40.75;;;;;12.61;75.52;99990.09;6279549;22;10876;-78
2021/01/27 11:01:36;;;;;;;;;28.25;27.75;;;;;12.27;76.32;99973.09;6224679;23;11354;-80
2021/01/27 11:04:32;;;;;;;;;55.25;45.00;;;;;12.15;76.20;99959.31;6227942;23;10864;-82
2021/01/27 11:07:05;;;;;;;;;70.25;57.00;;;;;12.18;76.43;99953.84;6232440;23;12217;-78
2021/01/27 11:10:01;;;;;;;;;22.75;22.75;;;;;12.38;75.38;99957.50;6244400;23;11445;-79
2021/01/27 11:12:57;;;;;;;;;69.50;54.50;;;;;12.39;75.91;99952.75;6223138;23;10637;-81
2021/01/27 11:15:42;;;;;;;;;48.50;41.75;;;;;12.19;76.61;99940.78;6252583;23;11524;-80
2021/01/27 11:18:13;;;;;;;;;78.00;59.75;;;;;12.18;76.82;99942.75;6254011;23;11531;-78
2021/01/27 11:21:03;;;;;;;;;36.75;35.50;;;;;12.44;75.55;99956.06;6222797;23;11533;-78
2021/01/27 11:23:58;;;;;;;;;14.25;14.25;;;;;12.44;75.31;99942.19;6223346;23;11240;-78
2021/01/27 11:26:54;;;;;;;;;36.50;33.00;;;;;12.44;75.33;99933.88;6242934;23;10495;-79
2021/01/27 11:29:50;;;;;;;;;39.50;33.50;;;;;12.27;75.97;99928.72;6243607;23;11068;-81
2021/01/27 11:32:26;;;;;;;;;34.00;34.00;;;;;12.27;76.30;99917.66;6253473;23;11745;-79
2021/01/27 11:35:23;;;;;;;;;42.50;39.00;;;;;12.09;76.44;99897.00;6244409;23;11387;-79
2021/01/27 11:37:53;;;;;;;;;28.50;26.50;;;;;12.09;77.03;99886.72;6219108;23;11114;-80
2021/01/27 11:41:03;;;;;;;;;32.50;32.50;;;;;12.18;76.95;99897.59;6243260;23;10713;-83
2021/01/27 11:43:59;;;;;;;;;24.00;23.75;;;;;12.15;76.28;99892.78;6243644;23;11788;-81
2021/01/27 11:46:35;;;;;;;;;30.75;28.50;;;;;12.21;76.14;99896.91;6253428;23;10846;-82
2021/01/27 11:49:17;;;;;;;;;30.75;30.75;;;;;12.20;76.32;99878.66;6221873;23;10918;-80
2021/01/27 11:51:47;;;;;;;;;19.75;19.75;;;;;12.45;75.15;99882.78;6227540;23;10994;-78
2021/01/27 11:54:42;;;;;;;;;26.25;26.25;;;;;12.25;75.87;99886.69;6223521;23;11507;-80
2021/01/27 11:57:39;;;;;;;;;33.75;33.50;;;;;12.35;75.32;99886.13;6243418;23;10879;-82
2021/01/27 12:00:36;;;;;;;;;27.00;24.50;;;;;12.19;75.61;99891.72;6243360;23;11044;-82
2021/01/27 12:03:32;;;;;;;;;28.50;28.50;;;;;12.22;76.04;99887.41;6243890;23;10769;-80
2021/01/27 12:06:28;;;;;;;;;26.75;26.50;;;;;12.30;75.85;99875.31;6242790;23;11092;-81
2021/01/27 12:09:24;;;;;;;;;32.25;29.75;;;;;12.33;75.73;99871.81;6224649;23;11063;-81
2021/01/27 12:12:19;;;;;;;;;26.50;26.50;;;;;12.26;75.65;99860.56;6244664;23;11009;-82
2021/01/27 12:14:52;;;;;;;;;25.00;25.00;;;;;12.19;75.63;99855.69;6254003;23;10854;-80
2021/01/27 12:17:49;;;;;;;;;36.25;34.00;;;;;12.34;75.29;99851.25;6223656;23;10937;-80
2021/01/27 12:20:46;;;;;;;;;28.75;28.00;;;;;12.40;75.05;99860.88;6243116;23;10861;-81
2021/01/27 12:23:14;;;;;;;;;33.75;29.75;;;;;12.44;75.22;99866.53;6253754;23;10972;-81
2021/01/27 12:26:09;;;;;;;;;25.25;25.25;;;;;12.23;75.26;99859.34;6224589;23;10771;-82
2021/01/27 12:28:37;;;;;;;;;26.25;26.25;;;;;12.23;75.28;99862.09;6244699;23;10734;-80
2021/01/27 12:31:34;;;;;;;;;27.00;27.00;;;;;11.88;75.94;99861.28;6243124;23;11338;-84
2021/01/27 12:34:02;;;;;;;;;29.50;26.00;;;;;11.82;75.54;99859.97;6254327;23;10933;-79
2021/01/27 12:36:59;;;;;;;;;14.50;14.25;;;;;11.73;75.54;99862.88;6223399;23;11103;-80
2021/01/27 12:39:54;;;;;;;;;27.00;27.00;;;;;12.02;74.98;99866.34;6243303;23;10688;-82
2021/01/27 12:42:40;;;;;;;;;28.75;26.50;;;;;11.95;74.60;99851.16;6247567;23;10772;-81
2021/01/27 12:45:19;;;;;;;;;24.00;22.75;;;;;11.68;75.40;99860.38;6224633;23;10911;-80
2021/01/27 12:47:46;;;;;;;;;24.75;24.75;;;;;11.82;75.18;99852.44;6254114;23;10764;-82
2021/01/27 12:50:42;;;;;;;;;20.25;20.25;;;;;11.59;75.67;99855.03;6243354;23;10789;-82
2021/01/27 12:53:09;;;;;;;;;26.75;24.50;;;;;11.83;75.09;99853.25;6254191;23;10759;-82
2021/01/27 12:56:05;;;;;;;;;25.25;25.25;;;;;11.96;74.35;99849.19;6243626;23;11439;-84
2021/01/27 12:58:32;;;;;;;;;28.75;25.25;;;;;11.94;74.51;99843.22;6254156;23;11635;-81